sensor_id;sensor_type;location;lat;lon;timestamp;P1;durP1;ratioP1;P2;durP2;ratioP2
61570;SDS011;47463;49.884;10.010;2023-03-05T00:00:00;27.2;;;16;;
61570;SDS011;47463;49.884;10.010;2023-03-05T00:05:00;24.7;;;16.6;;
61570;SDS011;47463;49.884;10.010;2023-03-05T00:10:00;29.2;;;17.3;;
61570;SDS011;47463;49.884;10.010;2023-03-05T00:15:00;25;;;15.9;;
61570;SDS011;47463;49.884;10.010;2023-03-05T00:20:00;25.4;;;15.5;;
61570;SDS011;47463;49.884;10.010;2023-03-05T00:25:00;25.4;;;15.5;;
61570;SDS011;47463;49.884;10.010;2023-03-05T00:30:00;19.5;;;14.9;;
61570;SDS011;47463;49.884;10.010;2023-03-05T00:35:00;23.1;;;15.5;;
61570;SDS011;47463;49.884;10.010;2023-03-05T00:40:00;20.9;;;15.4;;
61570;SDS011;47463;49.884;10.010;2023-03-05T00:45:00;23.5;;;15.4;;
61570;SDS011;47463;49.884;10.010;2023-03-05T00:50:00;18.3;;;14;;
61570;SDS011;47463;49.884;10.010;2023-03-05T00:55:00;18.3;;;14;;
61570;SDS011;47463;49.884;10.010;2023-03-05T01:00:00;15.5;;;13.1;;
61570;SDS011;47463;49.884;10.010;2023-03-05T01:05:00;17.4;;;13.9;;
61570;SDS011;47463;49.884;10.010;2023-03-05T01:10:00;17.6;;;14.9;;
61570;SDS011;47463;49.884;10.010;2023-03-05T01:15:00;20.9;;;14.5;;
61570;SDS011;47463;49.884;10.010;2023-03-05T01:20:00;18.3;;;14.1;;
61570;SDS011;47463;49.884;10.010;2023-03-05T01:25:00;18.3;;;14.1;;
61570;SDS011;47463;49.884;10.010;2023-03-05T01:30:00;17.9;;;13;;
61570;SDS011;47463;49.884;10.010;2023-03-05T01:35:00;18.6;;;13.7;;
61570;SDS011;47463;49.884;10.010;2023-03-05T01:40:00;15.6;;;13.7;;
61570;SDS011;47463;49.884;10.010;2023-03-05T01:45:01;16.3;;;12.8;;
61570;SDS011;47463;49.884;10.010;2023-03-05T01:50:00;16.1;;;12.4;;
61570;SDS011;47463;49.884;10.010;2023-03-05T01:55:00;16.1;;;12.4;;
61570;SDS011;47463;49.884;10.010;2023-03-05T02:00:00;15.2;;;12.8;;
61570;SDS011;47463;49.884;10.010;2023-03-05T02:05:01;16.2;;;13.1;;
61570;SDS011;47463;49.884;10.010;2023-03-05T02:10:00;15.8;;;13.2;;
61570;SDS011;47463;49.884;10.010;2023-03-05T02:15:00;16.2;;;12.8;;
61570;SDS011;47463;49.884;10.010;2023-03-05T02:20:02;14.5;;;12.8;;
61570;SDS011;47463;49.884;10.010;2023-03-05T02:25:00;14.5;;;12.8;;
61570;SDS011;47463;49.884;10.010;2023-03-05T02:30:00;15.1;;;12;;
61570;SDS011;47463;49.884;10.010;2023-03-05T02:35:00;17.6;;;13.3;;
61570;SDS011;47463;49.884;10.010;2023-03-05T02:40:00;15.7;;;12.1;;
61570;SDS011;47463;49.884;10.010;2023-03-05T02:45:00;14.7;;;12.1;;
61570;SDS011;47463;49.884;10.010;2023-03-05T02:50:00;12.7;;;11.5;;
61570;SDS011;47463;49.884;10.010;2023-03-05T02:55:00;12.7;;;11.5;;
61570;SDS011;47463;49.884;10.010;2023-03-05T03:00:00;12.9;;;10.9;;
61570;SDS011;47463;49.884;10.010;2023-03-05T03:05:00;10.6;;;10.5;;
61570;SDS011;47463;49.884;10.010;2023-03-05T03:10:00;10.9;;;10.7;;
61570;SDS011;47463;49.884;10.010;2023-03-05T03:15:00;8.8;;;10.6;;
61570;SDS011;47463;49.884;10.010;2023-03-05T03:20:00;12.9;;;10.5;;
61570;SDS011;47463;49.884;10.010;2023-03-05T03:25:00;12.9;;;10.5;;
61570;SDS011;47463;49.884;10.010;2023-03-05T03:30:00;14.9;;;12.7;;
61570;SDS011;47463;49.884;10.010;2023-03-05T03:35:00;22.9;;;16.1;;
61570;SDS011;47463;49.884;10.010;2023-03-05T03:40:00;27.8;;;17.7;;
61570;SDS011;47463;49.884;10.010;2023-03-05T03:45:00;30.4;;;17.7;;
61570;SDS011;47463;49.884;10.010;2023-03-05T03:50:00;19.8;;;15.2;;
61570;SDS011;47463;49.884;10.010;2023-03-05T03:55:00;19.8;;;15.2;;
61570;SDS011;47463;49.884;10.010;2023-03-05T04:00:00;21.7;;;14.8;;
61570;SDS011;47463;49.884;10.010;2023-03-05T04:05:00;26.3;;;15.5;;
61570;SDS011;47463;49.884;10.010;2023-03-05T04:10:00;22.8;;;15.1;;
61570;SDS011;47463;49.884;10.010;2023-03-05T04:15:00;21.2;;;15.5;;
61570;SDS011;47463;49.884;10.010;2023-03-05T04:20:00;19.1;;;14.5;;
61570;SDS011;47463;49.884;10.010;2023-03-05T04:25:00;19.1;;;14.5;;
61570;SDS011;47463;49.884;10.010;2023-03-05T04:30:00;21.3;;;15.4;;
61570;SDS011;47463;49.884;10.010;2023-03-05T04:35:00;23.2;;;15.8;;
61570;SDS011;47463;49.884;10.010;2023-03-05T04:40:00;19.7;;;14.9;;
61570;SDS011;47463;49.884;10.010;2023-03-05T04:45:00;21.3;;;14.5;;
61570;SDS011;47463;49.884;10.010;2023-03-05T04:50:00;20;;;13.9;;
61570;SDS011;47463;49.884;10.010;2023-03-05T04:55:00;20;;;13.9;;
61570;SDS011;47463;49.884;10.010;2023-03-05T05:00:00;19.8;;;13.9;;
61570;SDS011;47463;49.884;10.010;2023-03-05T05:05:00;15.3;;;12.5;;
61570;SDS011;47463;49.884;10.010;2023-03-05T05:10:00;16.3;;;12.7;;
61570;SDS011;47463;49.884;10.010;2023-03-05T05:15:00;12;;;11.4;;
61570;SDS011;47463;49.884;10.010;2023-03-05T05:20:00;12.4;;;10.9;;
61570;SDS011;47463;49.884;10.010;2023-03-05T05:25:00;12.4;;;10.9;;
61570;SDS011;47463;49.884;10.010;2023-03-05T05:30:00;11.2;;;10.8;;
61570;SDS011;47463;49.884;10.010;2023-03-05T05:35:00;9.1;;;10.6;;
61570;SDS011;47463;49.884;10.010;2023-03-05T05:40:00;8.4;;;10.1;;
61570;SDS011;47463;49.884;10.010;2023-03-05T05:45:00;10.1;;;10.7;;
61570;SDS011;47463;49.884;10.010;2023-03-05T05:50:00;10.2;;;10.4;;
61570;SDS011;47463;49.884;10.010;2023-03-05T05:55:00;10.2;;;10.4;;
61570;SDS011;47463;49.884;10.010;2023-03-05T06:00:00;13.3;;;10.9;;
61570;SDS011;47463;49.884;10.010;2023-03-05T06:05:00;7.6;;;10.5;;
61570;SDS011;47463;49.884;10.010;2023-03-05T06:10:00;8.9;;;10.2;;
61570;SDS011;47463;49.884;10.010;2023-03-05T06:15:00;10.1;;;10.2;;
61570;SDS011;47463;49.884;10.010;2023-03-05T06:20:00;9.5;;;9.8;;
61570;SDS011;47463;49.884;10.010;2023-03-05T06:25:00;9.5;;;9.8;;
61570;SDS011;47463;49.884;10.010;2023-03-05T06:30:00;9.2;;;9.9;;
61570;SDS011;47463;49.884;10.010;2023-03-05T06:35:00;6.7;;;9.8;;
61570;SDS011;47463;49.884;10.010;2023-03-05T06:40:00;12.2;;;10.2;;
61570;SDS011;47463;49.884;10.010;2023-03-05T06:45:00;9.1;;;10.1;;
61570;SDS011;47463;49.884;10.010;2023-03-05T06:50:00;10.5;;;11.3;;
61570;SDS011;47463;49.884;10.010;2023-03-05T06:55:00;10.5;;;11.3;;
61570;SDS011;47463;49.884;10.010;2023-03-05T07:00:00;11.6;;;11.3;;
61570;SDS011;47463;49.884;10.010;2023-03-05T07:05:00;13.8;;;11.9;;
61570;SDS011;47463;49.884;10.010;2023-03-05T07:10:00;12.3;;;11.4;;
61570;SDS011;47463;49.884;10.010;2023-03-05T07:15:00;13.6;;;11.2;;
61570;SDS011;47463;49.884;10.010;2023-03-05T07:20:00;12.4;;;11.2;;
61570;SDS011;47463;49.884;10.010;2023-03-05T07:25:00;12.4;;;11.2;;
61570;SDS011;47463;49.884;10.010;2023-03-05T07:30:00;12.1;;;11.3;;
61570;SDS011;47463;49.884;10.010;2023-03-05T07:35:00;12.3;;;10.7;;
61570;SDS011;47463;49.884;10.010;2023-03-05T07:40:00;9.9;;;10.5;;
61570;SDS011;47463;49.884;10.010;2023-03-05T07:45:00;10.6;;;10.1;;
61570;SDS011;47463;49.884;10.010;2023-03-05T07:50:00;7.7;;;9.8;;
61570;SDS011;47463;49.884;10.010;2023-03-05T07:55:00;7.7;;;9.8;;
61570;SDS011;47463;49.884;10.010;2023-03-05T08:00:00;8.1;;;10;;
61570;SDS011;47463;49.884;10.010;2023-03-05T08:05:00;4.7;;;9.2;;
61570;SDS011;47463;49.884;10.010;2023-03-05T08:10:00;7.7;;;9.8;;
61570;SDS011;47463;49.884;10.010;2023-03-05T08:15:00;6.5;;;9.2;;
61570;SDS011;47463;49.884;10.010;2023-03-05T08:20:00;7.4;;;9.2;;
61570;SDS011;47463;49.884;10.010;2023-03-05T08:25:00;7.4;;;9.2;;
61570;SDS011;47463;49.884;10.010;2023-03-05T08:30:00;5.8;;;8.5;;
61570;SDS011;47463;49.884;10.010;2023-03-05T08:35:00;6.4;;;8.6;;
61570;SDS011;47463;49.884;10.010;2023-03-05T08:40:00;4;;;7.8;;
61570;SDS011;47463;49.884;10.010;2023-03-05T08:45:00;2.3;;;7.6;;
61570;SDS011;47463;49.884;10.010;2023-03-05T08:50:00;5.8;;;8.2;;
61570;SDS011;47463;49.884;10.010;2023-03-05T08:55:00;5.8;;;8.2;;
61570;SDS011;47463;49.884;10.010;2023-03-05T09:00:00;3.5;;;7.8;;
61570;SDS011;47463;49.884;10.010;2023-03-05T09:05:00;3.5;;;8.1;;
61570;SDS011;47463;49.884;10.010;2023-03-05T09:10:00;2.8;;;7.7;;
61570;SDS011;47463;49.884;10.010;2023-03-05T09:15:00;4.5;;;8.2;;
61570;SDS011;47463;49.884;10.010;2023-03-05T09:20:00;4.3;;;8.4;;
61570;SDS011;47463;49.884;10.010;2023-03-05T09:25:00;4.3;;;8.4;;
61570;SDS011;47463;49.884;10.010;2023-03-05T09:30:00;4.3;;;7.7;;
61570;SDS011;47463;49.884;10.010;2023-03-05T09:35:00;4.5;;;8.4;;
61570;SDS011;47463;49.884;10.010;2023-03-05T09:40:00;3.3;;;8;;
61570;SDS011;47463;49.884;10.010;2023-03-05T09:45:02;3;;;8.2;;
61570;SDS011;47463;49.884;10.010;2023-03-05T09:50:00;6.7;;;8;;
61570;SDS011;47463;49.884;10.010;2023-03-05T09:55:00;6.7;;;8;;
61570;SDS011;47463;49.884;10.010;2023-03-05T10:00:00;4.4;;;7.8;;
61570;SDS011;47463;49.884;10.010;2023-03-05T10:05:01;3.6;;;7.9;;
61570;SDS011;47463;49.884;10.010;2023-03-05T10:10:01;3.8;;;7.8;;
61570;SDS011;47463;49.884;10.010;2023-03-05T10:15:00;3.2;;;7.6;;
61570;SDS011;47463;49.884;10.010;2023-03-05T10:20:03;2.3;;;7.4;;
61570;SDS011;47463;49.884;10.010;2023-03-05T10:25:02;2.3;;;7.4;;
61570;SDS011;47463;49.884;10.010;2023-03-05T10:30:02;4.6;;;7.7;;
61570;SDS011;47463;49.884;10.010;2023-03-05T10:35:03;2.9;;;7.6;;
61570;SDS011;47463;49.884;10.010;2023-03-05T10:40:02;3.7;;;8;;
61570;SDS011;47463;49.884;10.010;2023-03-05T10:45:00;3.4;;;8.4;;
61570;SDS011;47463;49.884;10.010;2023-03-05T10:50:00;5;;;8.2;;
61570;SDS011;47463;49.884;10.010;2023-03-05T10:55:00;5;;;8.2;;
61570;SDS011;47463;49.884;10.010;2023-03-05T11:00:00;3.1;;;8;;
61570;SDS011;47463;49.884;10.010;2023-03-05T11:05:00;4.6;;;8.3;;
61570;SDS011;47463;49.884;10.010;2023-03-05T11:10:02;4;;;8.2;;
61570;SDS011;47463;49.884;10.010;2023-03-05T11:15:02;4.6;;;8.2;;
61570;SDS011;47463;49.884;10.010;2023-03-05T11:20:19;3.9;;;8.1;;
61570;SDS011;47463;49.884;10.010;2023-03-05T11:25:04;3.9;;;8.1;;
61570;SDS011;47463;49.884;10.010;2023-03-05T11:30:00;4.6;;;8.3;;
61570;SDS011;47463;49.884;10.010;2023-03-05T11:35:00;2.6;;;8;;
61570;SDS011;47463;49.884;10.010;2023-03-05T11:40:14;4.9;;;8.6;;
61570;SDS011;47463;49.884;10.010;2023-03-05T11:45:00;6;;;8.4;;
61570;SDS011;47463;49.884;10.010;2023-03-05T11:50:01;3.8;;;8.3;;
61570;SDS011;47463;49.884;10.010;2023-03-05T11:55:01;3.8;;;8.3;;
61570;SDS011;47463;49.884;10.010;2023-03-05T12:00:00;4.6;;;8.6;;
61570;SDS011;47463;49.884;10.010;2023-03-05T12:05:00;4.8;;;8.3;;
61570;SDS011;47463;49.884;10.010;2023-03-05T12:10:00;4.9;;;8.4;;
61570;SDS011;47463;49.884;10.010;2023-03-05T12:15:01;5.1;;;8.6;;
61570;SDS011;47463;49.884;10.010;2023-03-05T12:20:00;5.9;;;8.9;;
61570;SDS011;47463;49.884;10.010;2023-03-05T12:25:15;5.9;;;8.9;;
61570;SDS011;47463;49.884;10.010;2023-03-05T12:30:00;4.4;;;8.6;;
61570;SDS011;47463;49.884;10.010;2023-03-05T12:35:00;5.5;;;9.1;;
61570;SDS011;47463;49.884;10.010;2023-03-05T12:40:00;6.4;;;9.4;;
61570;SDS011;47463;49.884;10.010;2023-03-05T12:50:00;3.6;;;8.3;;
61570;SDS011;47463;49.884;10.010;2023-03-05T12:55:01;3.6;;;8.3;;
61570;SDS011;47463;49.884;10.010;2023-03-05T13:00:00;3.2;;;8.3;;
61570;SDS011;47463;49.884;10.010;2023-03-05T13:05:01;4.1;;;8.6;;
61570;SDS011;47463;49.884;10.010;2023-03-05T13:10:00;5.2;;;9.3;;
61570;SDS011;47463;49.884;10.010;2023-03-05T13:15:00;6.3;;;9.3;;
61570;SDS011;47463;49.884;10.010;2023-03-05T13:20:01;6;;;9.4;;
61570;SDS011;47463;49.884;10.010;2023-03-05T13:25:05;6;;;9.4;;
61570;SDS011;47463;49.884;10.010;2023-03-05T13:30:00;6.3;;;9.4;;
61570;SDS011;47463;49.884;10.010;2023-03-05T13:35:00;6.4;;;9.6;;
61570;SDS011;47463;49.884;10.010;2023-03-05T13:40:01;6.3;;;9.5;;
61570;SDS011;47463;49.884;10.010;2023-03-05T13:45:01;6.7;;;9.2;;
61570;SDS011;47463;49.884;10.010;2023-03-05T13:50:00;6.4;;;9.6;;
61570;SDS011;47463;49.884;10.010;2023-03-05T13:55:00;6.4;;;9.6;;
61570;SDS011;47463;49.884;10.010;2023-03-05T14:00:00;9.6;;;9.9;;
61570;SDS011;47463;49.884;10.010;2023-03-05T14:05:00;8.9;;;9.8;;
61570;SDS011;47463;49.884;10.010;2023-03-05T14:10:00;9.1;;;9.7;;
61570;SDS011;47463;49.884;10.010;2023-03-05T14:15:00;7.9;;;10.1;;
61570;SDS011;47463;49.884;10.010;2023-03-05T14:20:13;9.1;;;10.3;;
61570;SDS011;47463;49.884;10.010;2023-03-05T14:25:00;9.1;;;10.3;;
61570;SDS011;47463;49.884;10.010;2023-03-05T14:30:00;10.2;;;10;;
61570;SDS011;47463;49.884;10.010;2023-03-05T14:35:00;7.8;;;10.2;;
61570;SDS011;47463;49.884;10.010;2023-03-05T14:40:00;12;;;10.5;;
61570;SDS011;47463;49.884;10.010;2023-03-05T14:45:04;9;;;10.6;;
61570;SDS011;47463;49.884;10.010;2023-03-05T14:50:00;9.1;;;10.4;;
61570;SDS011;47463;49.884;10.010;2023-03-05T14:55:00;9.1;;;10.4;;
61570;SDS011;47463;49.884;10.010;2023-03-05T15:00:00;9.8;;;10.8;;
61570;SDS011;47463;49.884;10.010;2023-03-05T15:05:00;8.8;;;10.4;;
61570;SDS011;47463;49.884;10.010;2023-03-05T15:10:00;12.5;;;10.6;;
61570;SDS011;47463;49.884;10.010;2023-03-05T15:15:00;10.3;;;10.7;;
61570;SDS011;47463;49.884;10.010;2023-03-05T15:20:00;11.8;;;11.3;;
61570;SDS011;47463;49.884;10.010;2023-03-05T15:25:00;11.8;;;11.3;;
61570;SDS011;47463;49.884;10.010;2023-03-05T15:30:00;9.6;;;10.4;;
61570;SDS011;47463;49.884;10.010;2023-03-05T15:35:00;10.4;;;10.9;;
61570;SDS011;47463;49.884;10.010;2023-03-05T15:40:00;9.6;;;10.3;;
61570;SDS011;47463;49.884;10.010;2023-03-05T15:45:00;10.3;;;10.6;;
61570;SDS011;47463;49.884;10.010;2023-03-05T15:50:00;10.1;;;10.5;;
61570;SDS011;47463;49.884;10.010;2023-03-05T15:55:00;10.1;;;10.5;;
61570;SDS011;47463;49.884;10.010;2023-03-05T16:00:00;9;;;10.2;;
61570;SDS011;47463;49.884;10.010;2023-03-05T16:05:00;11.9;;;10.9;;
61570;SDS011;47463;49.884;10.010;2023-03-05T16:10:00;8.9;;;10.2;;
61570;SDS011;47463;49.884;10.010;2023-03-05T16:15:00;7.5;;;9.9;;
61570;SDS011;47463;49.884;10.010;2023-03-05T16:20:00;6.5;;;9.5;;
61570;SDS011;47463;49.884;10.010;2023-03-05T16:25:00;6.5;;;9.5;;
61570;SDS011;47463;49.884;10.010;2023-03-05T16:30:00;7;;;9.5;;
61570;SDS011;47463;49.884;10.010;2023-03-05T16:35:00;7.8;;;9.9;;
61570;SDS011;47463;49.884;10.010;2023-03-05T16:40:00;6.6;;;9.3;;
61570;SDS011;47463;49.884;10.010;2023-03-05T16:45:00;9.8;;;9.8;;
61570;SDS011;47463;49.884;10.010;2023-03-05T16:50:00;6.2;;;9.3;;
61570;SDS011;47463;49.884;10.010;2023-03-05T16:55:00;6.2;;;9.3;;
61570;SDS011;47463;49.884;10.010;2023-03-05T17:00:00;6.2;;;9.1;;
61570;SDS011;47463;49.884;10.010;2023-03-05T17:05:00;6.7;;;9.3;;
61570;SDS011;47463;49.884;10.010;2023-03-05T17:10:00;7;;;9.4;;
61570;SDS011;47463;49.884;10.010;2023-03-05T17:15:00;7.1;;;9.4;;
61570;SDS011;47463;49.884;10.010;2023-03-05T17:20:00;6.5;;;9.5;;
61570;SDS011;47463;49.884;10.010;2023-03-05T17:25:00;6.5;;;9.5;;
61570;SDS011;47463;49.884;10.010;2023-03-05T17:30:00;8.2;;;9.3;;
61570;SDS011;47463;49.884;10.010;2023-03-05T17:35:00;7.6;;;9.3;;
61570;SDS011;47463;49.884;10.010;2023-03-05T17:40:00;9.2;;;9.8;;
61570;SDS011;47463;49.884;10.010;2023-03-05T17:45:00;7.8;;;9.7;;
61570;SDS011;47463;49.884;10.010;2023-03-05T17:50:00;8.7;;;9.8;;
61570;SDS011;47463;49.884;10.010;2023-03-05T17:55:00;8.7;;;9.8;;
61570;SDS011;47463;49.884;10.010;2023-03-05T18:00:00;22.6;;;14.9;;
61570;SDS011;47463;49.884;10.010;2023-03-05T18:05:00;9.7;;;10;;
61570;SDS011;47463;49.884;10.010;2023-03-05T18:10:00;9.4;;;10.3;;
61570;SDS011;47463;49.884;10.010;2023-03-05T18:15:00;8.7;;;10;;
61570;SDS011;47463;49.884;10.010;2023-03-05T18:20:00;9.5;;;10.3;;
61570;SDS011;47463;49.884;10.010;2023-03-05T18:25:00;9.5;;;10.3;;
61570;SDS011;47463;49.884;10.010;2023-03-05T18:30:00;11.5;;;10.3;;
61570;SDS011;47463;49.884;10.010;2023-03-05T18:35:00;7.8;;;10;;
61570;SDS011;47463;49.884;10.010;2023-03-05T18:40:00;9.6;;;10.1;;
61570;SDS011;47463;49.884;10.010;2023-03-05T18:45:00;8;;;10.1;;
61570;SDS011;47463;49.884;10.010;2023-03-05T18:50:00;8.6;;;10.2;;
61570;SDS011;47463;49.884;10.010;2023-03-05T18:55:00;8.6;;;10.2;;
61570;SDS011;47463;49.884;10.010;2023-03-05T19:00:00;8.6;;;10;;
61570;SDS011;47463;49.884;10.010;2023-03-05T19:05:00;10.5;;;10.3;;
61570;SDS011;47463;49.884;10.010;2023-03-05T19:10:00;8;;;10.1;;
61570;SDS011;47463;49.884;10.010;2023-03-05T19:15:00;9.7;;;10.3;;
61570;SDS011;47463;49.884;10.010;2023-03-05T19:20:00;8.7;;;10;;
61570;SDS011;47463;49.884;10.010;2023-03-05T19:25:00;8.7;;;10;;
61570;SDS011;47463;49.884;10.010;2023-03-05T19:30:00;8.7;;;10.2;;
61570;SDS011;47463;49.884;10.010;2023-03-05T19:35:00;8.2;;;10.2;;
61570;SDS011;47463;49.884;10.010;2023-03-05T19:40:00;9.3;;;9.9;;
61570;SDS011;47463;49.884;10.010;2023-03-05T19:45:00;9.7;;;9.9;;
61570;SDS011;47463;49.884;10.010;2023-03-05T19:50:00;8.8;;;10.2;;
61570;SDS011;47463;49.884;10.010;2023-03-05T19:55:00;8.8;;;10.2;;
61570;SDS011;47463;49.884;10.010;2023-03-05T20:00:00;9;;;10.2;;
61570;SDS011;47463;49.884;10.010;2023-03-05T20:05:00;9.4;;;10;;
61570;SDS011;47463;49.884;10.010;2023-03-05T20:10:00;8.6;;;9.9;;
61570;SDS011;47463;49.884;10.010;2023-03-05T20:15:00;9.4;;;9.9;;
61570;SDS011;47463;49.884;10.010;2023-03-05T20:20:00;7.6;;;9.7;;
61570;SDS011;47463;49.884;10.010;2023-03-05T20:25:00;7.6;;;9.7;;
61570;SDS011;47463;49.884;10.010;2023-03-05T20:30:00;9.4;;;9.8;;
61570;SDS011;47463;49.884;10.010;2023-03-05T20:35:00;7.7;;;9.7;;
61570;SDS011;47463;49.884;10.010;2023-03-05T20:40:00;8.1;;;9.7;;
61570;SDS011;47463;49.884;10.010;2023-03-05T20:45:00;9;;;10.3;;
61570;SDS011;47463;49.884;10.010;2023-03-05T20:50:00;11.1;;;10.1;;
61570;SDS011;47463;49.884;10.010;2023-03-05T20:55:00;11.1;;;10.1;;
61570;SDS011;47463;49.884;10.010;2023-03-05T21:00:00;9.8;;;10.4;;
61570;SDS011;47463;49.884;10.010;2023-03-05T21:05:00;8.9;;;10.5;;
61570;SDS011;47463;49.884;10.010;2023-03-05T21:10:00;9.6;;;10.5;;
61570;SDS011;47463;49.884;10.010;2023-03-05T21:15:00;10.1;;;10.2;;
61570;SDS011;47463;49.884;10.010;2023-03-05T21:20:00;8.7;;;10;;
61570;SDS011;47463;49.884;10.010;2023-03-05T21:25:00;8.7;;;10;;
61570;SDS011;47463;49.884;10.010;2023-03-05T21:30:00;7.3;;;9.9;;
61570;SDS011;47463;49.884;10.010;2023-03-05T21:35:00;9;;;10.1;;
61570;SDS011;47463;49.884;10.010;2023-03-05T21:40:00;9.5;;;10;;
61570;SDS011;47463;49.884;10.010;2023-03-05T21:45:00;9;;;9.9;;
61570;SDS011;47463;49.884;10.010;2023-03-05T21:50:00;9;;;10.2;;
61570;SDS011;47463;49.884;10.010;2023-03-05T21:55:00;9;;;10.2;;
61570;SDS011;47463;49.884;10.010;2023-03-05T22:00:00;9.2;;;10.4;;
61570;SDS011;47463;49.884;10.010;2023-03-05T22:05:00;8.4;;;10.1;;
61570;SDS011;47463;49.884;10.010;2023-03-05T22:10:00;10.4;;;10.1;;
61570;SDS011;47463;49.884;10.010;2023-03-05T22:15:00;7.9;;;10.2;;
61570;SDS011;47463;49.884;10.010;2023-03-05T22:20:00;9.5;;;10.3;;
61570;SDS011;47463;49.884;10.010;2023-03-05T22:25:00;9.5;;;10.3;;
61570;SDS011;47463;49.884;10.010;2023-03-05T22:30:00;8.8;;;10.2;;
61570;SDS011;47463;49.884;10.010;2023-03-05T22:35:00;9;;;10.9;;
61570;SDS011;47463;49.884;10.010;2023-03-05T22:40:00;8;;;10.1;;
61570;SDS011;47463;49.884;10.010;2023-03-05T22:45:00;7;;;9.7;;
61570;SDS011;47463;49.884;10.010;2023-03-05T22:50:00;8.3;;;10.1;;
61570;SDS011;47463;49.884;10.010;2023-03-05T22:55:00;8.3;;;10.1;;
61570;SDS011;47463;49.884;10.010;2023-03-05T23:00:00;10.4;;;10.3;;
61570;SDS011;47463;49.884;10.010;2023-03-05T23:05:00;8.7;;;10.6;;
61570;SDS011;47463;49.884;10.010;2023-03-05T23:10:00;9.1;;;10.6;;
61570;SDS011;47463;49.884;10.010;2023-03-05T23:15:00;8.7;;;10.6;;
61570;SDS011;47463;49.884;10.010;2023-03-05T23:20:00;12.9;;;10.9;;
61570;SDS011;47463;49.884;10.010;2023-03-05T23:25:00;12.9;;;10.9;;
61570;SDS011;47463;49.884;10.010;2023-03-05T23:30:00;9.7;;;10.2;;
61570;SDS011;47463;49.884;10.010;2023-03-05T23:35:00;7.6;;;10.6;;
61570;SDS011;47463;49.884;10.010;2023-03-05T23:40:00;9.4;;;10.5;;
61570;SDS011;47463;49.884;10.010;2023-03-05T23:45:00;8.6;;;10.8;;
61570;SDS011;47463;49.884;10.010;2023-03-05T23:50:00;8.8;;;10.5;;
61570;SDS011;47463;49.884;10.010;2023-03-05T23:55:00;8.8;;;10.5;;
